Time;durP1;ratioP1;P1;durP2;ratioP2;P2;SDS_P1;SDS_P2;PMS_P1;PMS_P2;Temp;Humidity;BMP_temperature;BMP_pressure;BME280_temperature;BME280_humidity;BME280_pressure;Samples;Min_cycle;Max_cycle;Signal;HPM_P1;HPM_P2
2022/07/12 00:01:09;;;;;;;0.00;0.00;;;15.40;99.90;;;;;;5055904;28;20081;-75
2022/07/12 00:03:35;;;;;;;0.10;0.10;;;15.30;99.90;;;;;;5056157;28;20056;-75
2022/07/12 00:06:01;;;;;;;0.20;0.10;;;15.30;99.90;;;;;;5055899;28;20045;-75
2022/07/12 00:08:27;;;;;;;0.03;0.03;;;15.30;99.90;;;;;;5056166;28;20044;-75
2022/07/12 00:10:53;;;;;;;0.15;0.15;;;15.30;99.90;;;;;;5055945;28;20036;-75
2022/07/12 00:13:18;;;;;;;0.40;0.22;;;15.20;99.90;;;;;;5056169;28;20088;-75
2022/07/12 00:15:44;;;;;;;0.40;0.40;;;15.10;99.90;;;;;;5056036;28;20041;-75
2022/07/12 00:18:10;;;;;;;0.05;0.05;;;15.10;99.90;;;;;;5056074;28;20041;-76
2022/07/12 00:20:37;;;;;;;0.15;0.13;;;15.00;99.90;;;;;;5038016;28;20041;-76
2022/07/12 00:23:03;;;;;;;0.30;0.25;;;15.10;99.90;;;;;;5055703;28;20073;-76
2022/07/12 00:25:29;;;;;;;0.30;0.17;;;15.00;99.90;;;;;;5056048;28;20045;-75
2022/07/12 00:27:55;;;;;;;0.57;0.47;;;15.00;99.90;;;;;;5055473;28;20045;-75
2022/07/12 00:30:21;;;;;;;0.63;0.38;;;15.00;99.90;;;;;;5056098;28;20049;-76
2022/07/12 00:32:48;;;;;;;0.17;0.10;;;15.00;99.90;;;;;;5055411;28;20116;-75
2022/07/12 00:35:14;;;;;;;0.47;0.30;;;14.90;99.90;;;;;;5055423;28;20055;-75
2022/07/12 00:37:40;;;;;;;2.50;1.00;;;14.90;99.90;;;;;;5055482;28;20047;-75
2022/07/12 00:40:08;;;;;;;0.73;0.30;;;14.90;99.90;;;;;;5055818;28;20045;-75
2022/07/12 00:42:34;;;;;;;0.00;0.00;;;14.90;99.90;;;;;;5055221;28;20049;-76
2022/07/12 00:45:00;;;;;;;0.28;0.20;;;14.90;99.90;;;;;;5055367;28;20068;-75
2022/07/12 00:47:42;;;;;;;0.95;0.43;;;14.90;99.90;;;;;;5055557;28;20427;-75
2022/07/12 00:50:09;;;;;;;0.20;0.20;;;14.90;99.90;;;;;;5055669;28;20098;-75
2022/07/12 00:52:36;;;;;;;0.03;0.03;;;14.90;99.90;;;;;;5054848;28;20037;-76
2022/07/12 00:55:05;;;;;;;0.03;0.03;;;14.80;99.90;;;;;;5055376;28;20116;-76
2022/07/12 00:57:35;;;;;;;1.17;0.17;;;14.80;99.90;;;;;;5055421;28;20048;-75
2022/07/12 01:00:03;;;;;;;0.63;0.45;;;14.90;99.90;;;;;;5054789;28;20053;-75
2022/07/12 01:02:29;;;;;;;0.10;0.10;;;14.80;99.90;;;;;;5054178;28;20068;-75
2022/07/12 01:04:55;;;;;;;0.95;0.85;;;14.80;99.90;;;;;;5037261;28;20076;-76
2022/07/12 01:07:24;;;;;;;0.35;0.28;;;14.80;99.90;;;;;;5055358;28;20051;-75
2022/07/12 01:09:53;;;;;;;0.25;0.25;;;14.80;99.90;;;;;;5055036;28;20045;-75
2022/07/12 01:12:20;;;;;;;0.15;0.15;;;14.80;99.90;;;;;;5055473;28;20120;-75
2022/07/12 01:14:46;;;;;;;0.00;0.00;;;14.80;99.90;;;;;;5055125;28;20076;-75
2022/07/12 01:17:13;;;;;;;0.85;0.22;;;14.80;99.90;;;;;;5055051;28;20068;-75
2022/07/12 01:19:38;;;;;;;0.22;0.22;;;14.80;99.90;;;;;;5055071;28;20045;-75
2022/07/12 01:22:08;;;;;;;0.20;0.15;;;14.70;99.90;;;;;;5037058;28;20498;-75
2022/07/12 01:24:34;;;;;;;0.20;0.20;;;14.80;99.90;;;;;;5054668;28;20143;-75
2022/07/12 01:27:02;;;;;;;0.28;0.22;;;14.70;99.90;;;;;;5055018;28;20112;-76
2022/07/12 01:29:28;;;;;;;0.00;0.00;;;14.70;99.90;;;;;;5055329;28;20049;-75
2022/07/12 01:31:54;;;;;;;0.28;0.20;;;14.70;99.90;;;;;;5055106;28;20048;-75
2022/07/12 01:34:21;;;;;;;1.00;0.15;;;14.70;99.90;;;;;;5054585;28;20036;-75
2022/07/12 01:36:47;;;;;;;0.93;0.73;;;14.70;99.90;;;;;;5054339;28;20075;-76
2022/07/12 01:39:13;;;;;;;0.17;0.17;;;14.70;99.90;;;;;;5054322;28;20095;-75
2022/07/12 01:41:39;;;;;;;0.15;0.15;;;14.70;99.90;;;;;;5054556;28;20430;-75
2022/07/12 01:44:06;;;;;;;0.00;0.00;;;14.70;99.90;;;;;;5054151;28;20061;-75
2022/07/12 01:46:31;;;;;;;0.28;0.20;;;14.60;99.90;;;;;;5054411;28;20486;-76
2022/07/12 01:48:57;;;;;;;0.10;0.10;;;14.70;99.90;;;;;;5054222;28;20084;-75
2022/07/12 01:51:22;;;;;;;0.05;0.05;;;14.70;99.90;;;;;;5054447;28;20052;-75
2022/07/12 01:53:48;;;;;;;0.55;0.40;;;14.70;99.90;;;;;;5054360;28;20052;-75
2022/07/12 01:56:15;;;;;;;0.20;0.13;;;14.80;99.90;;;;;;5054579;28;20099;-75
2022/07/12 01:58:41;;;;;;;0.32;0.28;;;14.80;99.90;;;;;;5055034;28;20049;-74
2022/07/12 02:01:10;;;;;;;0.15;0.13;;;14.70;99.90;;;;;;5054063;28;20445;-75
2022/07/12 02:03:36;;;;;;;0.85;0.60;;;14.70;99.90;;;;;;5053892;28;20072;-76
2022/07/12 02:06:03;;;;;;;0.47;0.28;;;14.70;99.90;;;;;;5054007;28;20060;-75
2022/07/12 02:08:28;;;;;;;0.00;0.00;;;14.60;99.90;;;;;;5054136;28;20049;-76
2022/07/12 02:10:54;;;;;;;0.73;0.65;;;14.60;99.90;;;;;;5054073;28;20114;-75
2022/07/12 02:13:20;;;;;;;0.65;0.63;;;14.60;99.90;;;;;;5053603;28;20041;-76
2022/07/12 02:15:45;;;;;;;0.00;0.00;;;14.60;99.90;;;;;;5054015;28;20581;-76
2022/07/12 02:18:11;;;;;;;0.30;0.30;;;14.60;99.90;;;;;;5053613;28;20475;-75
2022/07/12 02:20:36;;;;;;;0.00;0.00;;;14.70;99.90;;;;;;5053712;28;20037;-75
2022/07/12 02:23:02;;;;;;;0.47;0.20;;;14.70;99.90;;;;;;5053339;28;20091;-75
2022/07/12 02:25:28;;;;;;;1.10;0.65;;;14.70;99.90;;;;;;5053382;28;20049;-74
2022/07/12 02:27:53;;;;;;;0.13;0.13;;;14.70;99.90;;;;;;5053327;28;20029;-75
2022/07/12 02:30:19;;;;;;;0.10;0.10;;;14.70;99.90;;;;;;5053508;28;20083;-75
2022/07/12 02:32:45;;;;;;;0.45;0.43;;;14.70;99.90;;;;;;5053194;28;20041;-76
2022/07/12 02:35:11;;;;;;;0.82;0.70;;;14.60;99.90;;;;;;5053378;28;20068;-75
2022/07/12 02:37:36;;;;;;;0.00;0.00;;;14.60;99.90;;;;;;5053312;28;20407;-76
2022/07/12 02:42:48;;;;;;;1.25;0.70;;;14.60;99.90;;;;;;5053376;28;20460;-74
2022/07/12 02:45:14;;;;;;;0.00;0.00;;;14.60;99.90;;;;;;5053177;28;20051;-75
2022/07/12 02:47:40;;;;;;;0.47;0.47;;;14.60;99.90;;;;;;5053265;28;20379;-75
2022/07/12 02:50:07;;;;;;;1.00;0.70;;;14.60;99.90;;;;;;5053517;28;20052;-75
2022/07/12 02:52:33;;;;;;;1.17;0.70;;;14.60;99.90;;;;;;5053257;28;20041;-75
2022/07/12 02:54:59;;;;;;;0.20;0.13;;;14.60;99.90;;;;;;5052983;28;20106;-75
2022/07/12 02:57:24;;;;;;;0.17;0.10;;;14.50;99.90;;;;;;5053133;28;20037;-76
2022/07/12 02:59:50;;;;;;;0.35;0.22;;;14.50;99.90;;;;;;5053019;28;20052;-76
2022/07/12 03:02:16;;;;;;;0.88;0.82;;;14.50;99.90;;;;;;5053196;28;20052;-75
2022/07/12 03:04:41;;;;;;;0.32;0.30;;;14.50;99.90;;;;;;5052869;28;20057;-75
2022/07/12 03:07:07;;;;;;;0.28;0.28;;;14.60;99.90;;;;;;5053493;28;20044;-75
2022/07/12 03:09:33;;;;;;;0.28;0.20;;;14.50;99.90;;;;;;5052871;28;20387;-75
2022/07/12 03:11:58;;;;;;;0.70;0.55;;;14.50;99.90;;;;;;5053073;28;20492;-75
2022/07/12 03:14:24;;;;;;;1.17;0.82;;;14.40;99.90;;;;;;5052596;28;20049;-76
2022/07/12 03:16:49;;;;;;;0.52;0.47;;;14.40;99.90;;;;;;5053069;28;20037;-76
2022/07/12 03:19:15;;;;;;;0.70;0.65;;;14.40;99.90;;;;;;5053123;28;20071;-75
2022/07/12 03:21:41;;;;;;;0.20;0.13;;;14.40;99.90;;;;;;5052701;28;20621;-75
2022/07/12 03:24:06;;;;;;;0.25;0.13;;;14.30;99.90;;;;;;5052615;28;20079;-75
2022/07/12 03:26:32;;;;;;;0.13;0.13;;;14.20;99.90;;;;;;5055531;28;20124;-75
2022/07/12 03:29:00;;;;;;;0.65;0.43;;;14.20;99.90;;;;;;5056570;28;20115;-75
2022/07/12 03:31:26;;;;;;;0.22;0.20;;;14.20;99.90;;;;;;5056672;28;20115;-75
2022/07/12 03:33:52;;;;;;;0.38;0.17;;;14.20;99.90;;;;;;5056223;28;20452;-75
2022/07/12 03:36:18;;;;;;;0.00;0.00;;;14.20;99.90;;;;;;5056243;28;20052;-75
2022/07/12 03:38:43;;;;;;;0.63;0.63;;;15.30;99.90;;;;;;5056142;28;20037;-76
2022/07/12 03:41:09;;;;;;;0.20;0.20;;;14.20;99.90;;;;;;5056224;28;20052;-75
2022/07/12 03:43:34;;;;;;;2.03;1.15;;;14.10;99.90;;;;;;5056008;28;20041;-76
2022/07/12 03:46:00;;;;;;;0.03;0.03;;;14.20;99.90;;;;;;5056475;28;20052;-75
2022/07/12 03:48:26;;;;;;;1.15;0.80;;;14.10;99.90;;;;;;5055986;28;20044;-74
2022/07/12 03:50:51;;;;;;;0.00;0.00;;;14.10;99.90;;;;;;5056151;28;20053;-75
2022/07/12 03:53:17;;;;;;;0.00;0.00;;;14.10;99.90;;;;;;5056144;28;20049;-75
2022/07/12 03:55:43;;;;;;;0.13;0.13;;;14.00;99.90;;;;;;5056237;28;20044;-75
2022/07/12 03:58:08;;;;;;;1.00;0.90;;;14.00;99.90;;;;;;5056137;28;20124;-75
2022/07/12 04:00:34;;;;;;;0.52;0.38;;;14.20;99.90;;;;;;5055865;28;20183;-75
2022/07/12 04:03:00;;;;;;;0.93;0.77;;;14.00;99.90;;;;;;5055585;28;20530;-76
2022/07/12 04:05:26;;;;;;;1.48;0.55;;;13.90;99.90;;;;;;5055738;28;20047;-75
2022/07/12 04:07:53;;;;;;;1.05;0.85;;;13.90;99.90;;;;;;5055412;28;20068;-75
2022/07/12 04:10:19;;;;;;;1.33;0.85;;;13.90;99.90;;;;;;5055890;28;20053;-75
2022/07/12 04:12:45;;;;;;;0.95;0.32;;;14.00;99.90;;;;;;5055533;28;20048;-75
2022/07/12 04:15:11;;;;;;;0.88;0.68;;;14.00;99.90;;;;;;5055731;28;20053;-76
2022/07/12 04:17:37;;;;;;;0.47;0.40;;;14.00;99.90;;;;;;5055455;28;20045;-75
2022/07/12 04:20:03;;;;;;;1.25;0.47;;;13.90;99.90;;;;;;5055492;28;20547;-75
2022/07/12 04:22:28;;;;;;;0.32;0.30;;;13.80;99.90;;;;;;5055567;28;20072;-76
2022/07/12 04:24:54;;;;;;;2.72;1.25;;;13.80;99.90;;;;;;5055254;28;20079;-75
2022/07/12 04:27:20;;;;;;;1.85;0.32;;;13.80;99.90;;;;;;5055004;28;20091;-75
2022/07/12 04:29:46;;;;;;;1.52;0.25;;;13.70;99.90;;;;;;5055330;28;20045;-76
2022/07/12 04:32:11;;;;;;;0.88;0.68;;;13.70;99.90;;;;;;5054937;28;20106;-75
2022/07/12 04:34:37;;;;;;;0.95;0.55;;;13.70;99.90;;;;;;5036897;28;20048;-75
2022/07/12 04:37:03;;;;;;;1.23;0.77;;;14.80;99.90;;;;;;5055117;28;20095;-75
2022/07/12 04:39:28;;;;;;;1.35;1.15;;;13.70;99.90;;;;;;5054721;28;20125;-75
2022/07/12 04:41:54;;;;;;;2.35;1.15;;;13.80;99.90;;;;;;5054735;28;20123;-75
2022/07/12 04:44:20;;;;;;;0.80;0.28;;;13.90;99.90;;;;;;5055327;28;20044;-76
2022/07/12 04:46:45;;;;;;;1.17;0.77;;;13.90;99.90;;;;;;5055056;28;20060;-75
2022/07/12 04:49:11;;;;;;;0.13;0.13;;;14.00;99.90;;;;;;5054980;28;20052;-76
2022/07/12 04:51:37;;;;;;;0.43;0.40;;;14.10;99.90;;;;;;5054703;28;20080;-75
2022/07/12 04:54:03;;;;;;;4.28;0.77;;;14.10;99.90;;;;;;5037233;28;20041;-76
2022/07/12 04:56:29;;;;;;;0.35;0.17;;;14.20;99.90;;;;;;5054904;28;20049;-76
2022/07/12 04:58:54;;;;;;;0.45;0.45;;;14.30;99.90;;;;;;5054961;28;20051;-75
2022/07/12 05:01:20;;;;;;;0.35;0.20;;;14.20;99.90;;;;;;5054942;28;20092;-76
2022/07/12 05:03:46;;;;;;;0.20;0.20;;;14.40;99.90;;;;;;5055225;28;20051;-76
2022/07/12 05:06:11;;;;;;;0.63;0.63;;;14.50;99.90;;;;;;5055110;28;20049;-75
2022/07/12 05:08:37;;;;;;;0.75;0.28;;;14.70;99.90;;;;;;5055281;28;20111;-75
2022/07/12 05:11:03;;;;;;;1.77;1.08;;;15.10;99.90;;;;;;5055588;28;20114;-75
2022/07/12 05:13:28;;;;;;;0.75;0.43;;;15.40;99.90;;;;;;5055176;28;20088;-75
2022/07/12 05:15:54;;;;;;;1.45;0.73;;;15.30;99.90;;;;;;5054002;28;20045;-75
2022/07/12 05:18:20;;;;;;;0.28;0.28;;;15.30;99.90;;;;;;5054226;28;20049;-75
2022/07/12 05:20:45;;;;;;;0.40;0.32;;;15.10;99.90;;;;;;5053740;28;20064;-74
2022/07/12 05:23:11;;;;;;;0.25;0.25;;;16.00;99.90;;;;;;5051824;28;20130;-75
2022/07/12 05:25:36;;;;;;;0.20;0.20;;;14.80;99.90;;;;;;5050706;28;20048;-76
2022/07/12 05:28:02;;;;;;;0.45;0.32;;;14.90;99.90;;;;;;5051207;28;20376;-76
2022/07/12 05:30:28;;;;;;;0.32;0.32;;;15.00;99.90;;;;;;5053287;28;20099;-75
2022/07/12 05:32:53;;;;;;;0.40;0.40;;;15.10;99.90;;;;;;5034884;28;20094;-75
2022/07/12 05:35:19;;;;;;;0.05;0.05;;;15.70;99.90;;;;;;5053453;28;20372;-75
2022/07/12 05:37:45;;;;;;;0.08;0.08;;;16.80;99.90;;;;;;5053726;28;20048;-75
2022/07/12 05:40:10;;;;;;;0.52;0.45;;;17.70;99.90;;;;;;5053961;28;20488;-76
2022/07/12 05:42:36;;;;;;;0.00;0.00;;;18.70;99.90;;;;;;5053584;28;20045;-76
2022/07/12 05:45:03;;;;;;;0.00;0.00;;;19.00;99.90;;;;;;5053660;28;20044;-75
2022/07/12 05:47:28;;;;;;;0.00;0.00;;;18.90;99.90;;;;;;5052814;28;20052;-76
2022/07/12 05:49:54;;;;;;;0.32;0.30;;;18.80;99.90;;;;;;5052359;28;20045;-76
2022/07/12 05:55:04;;;;;;;0.10;0.10;;;18.70;99.90;;;;;;5052879;28;20045;-75
2022/07/12 05:57:29;;;;;;;2.33;0.90;;;18.30;99.90;;;;;;5053141;28;20044;-75
2022/07/12 05:59:55;;;;;;;0.50;0.35;;;18.40;99.90;;;;;;5052963;28;20044;-75
2022/07/12 06:02:21;;;;;;;0.17;0.17;;;18.60;99.90;;;;;;5052889;28;20052;-75
2022/07/12 06:04:46;;;;;;;0.73;0.38;;;18.60;99.90;;;;;;5052454;28;20072;-75
2022/07/12 06:07:12;;;;;;;1.13;0.52;;;18.70;99.90;;;;;;5052656;28;20037;-76
2022/07/12 06:09:37;;;;;;;0.28;0.28;;;18.80;99.90;;;;;;5052434;28;20057;-75
2022/07/12 06:12:03;;;;;;;0.22;0.10;;;18.80;99.90;;;;;;5052413;28;20097;-76
2022/07/12 06:14:29;;;;;;;0.15;0.08;;;18.90;99.90;;;;;;5052397;28;20044;-75
2022/07/12 06:16:55;;;;;;;0.00;0.00;;;19.00;99.90;;;;;;5052601;28;20454;-75
2022/07/12 06:19:23;;;;;;;0.13;0.13;;;19.10;99.90;;;;;;5052445;28;20116;-75
2022/07/12 06:21:49;;;;;;;0.00;0.00;;;18.80;99.90;;;;;;5052232;28;20056;-75
2022/07/12 06:24:14;;;;;;;0.93;0.75;;;18.80;99.90;;;;;;5052095;28;20041;-76
2022/07/12 06:26:40;;;;;;;0.28;0.28;;;18.60;99.90;;;;;;5052250;28;20095;-75
2022/07/12 06:29:06;;;;;;;0.25;0.25;;;18.80;99.90;;;;;;5051949;28;20049;-76
2022/07/12 06:31:31;;;;;;;0.10;0.10;;;19.20;99.90;;;;;;5052166;28;20045;-76
2022/07/12 06:33:57;;;;;;;0.20;0.20;;;19.20;99.90;;;;;;5052184;28;20399;-76
2022/07/12 06:36:23;;;;;;;0.00;0.00;;;19.30;99.90;;;;;;5052342;28;20191;-75
2022/07/12 06:38:48;;;;;;;0.28;0.28;;;19.50;99.90;;;;;;5051669;28;20047;-75
2022/07/12 06:41:14;;;;;;;0.20;0.20;;;19.60;99.90;;;;;;5051672;28;20064;-75
2022/07/12 06:43:39;;;;;;;0.13;0.13;;;19.70;99.90;;;;;;5051364;28;20037;-75
2022/07/12 06:46:05;;;;;;;0.55;0.47;;;19.80;99.90;;;;;;5051514;28;20037;-75
2022/07/12 06:48:30;;;;;;;0.10;0.10;;;19.90;99.90;;;;;;5051452;28;20184;-75
2022/07/12 06:50:56;;;;;;;0.00;0.00;;;19.90;99.90;;;;;;5048274;28;20049;-74
2022/07/12 06:53:21;;;;;;;0.45;0.32;;;20.00;99.90;;;;;;5048196;28;20573;-75
2022/07/12 06:55:47;;;;;;;0.32;0.28;;;20.30;99.90;;;;;;5048476;28;20380;-75
2022/07/12 06:58:13;;;;;;;0.85;0.25;;;20.10;99.90;;;;;;5049139;28;20060;-75
2022/07/12 07:00:38;;;;;;;1.33;0.40;;;20.30;99.90;;;;;;5046688;28;20184;-75
2022/07/12 07:03:07;;;;;;;0.50;0.50;;;20.20;99.90;;;;;;5048322;28;20048;-75
2022/07/12 07:05:32;;;;;;;0.45;0.35;;;20.50;99.90;;;;;;5048094;28;20049;-75
2022/07/12 07:07:58;;;;;;;0.10;0.10;;;20.90;99.90;;;;;;5047628;28;20052;-75
2022/07/12 07:10:23;;;;;;;0.17;0.10;;;21.40;99.90;;;;;;5048386;28;20040;-76
2022/07/12 07:12:49;;;;;;;1.20;0.50;;;21.70;99.90;;;;;;5048121;28;20040;-75
2022/07/12 07:15:16;;;;;;;0.80;0.38;;;21.80;99.90;;;;;;5048181;28;20489;-75
2022/07/12 07:17:42;;;;;;;0.30;0.30;;;22.30;99.90;;;;;;5047937;28;20063;-75
2022/07/12 07:20:09;;;;;;;0.10;0.10;;;23.20;99.90;;;;;;5048048;28;20060;-75
2022/07/12 07:22:35;;;;;;;0.65;0.25;;;23.70;99.90;;;;;;5047828;28;20080;-76
2022/07/12 07:25:00;;;;;;;4.28;0.32;;;24.00;99.90;;;;;;5048220;28;20052;-75
2022/07/12 07:27:26;;;;;;;0.47;0.15;;;23.60;99.90;;;;;;5048235;28;20045;-76
2022/07/12 07:32:36;;;;;;;1.10;0.50;;;24.00;99.90;;;;;;5047601;28;20087;-76
2022/07/12 07:35:04;;;;;;;0.25;0.25;;;24.50;99.90;;;;;;5047948;28;20076;-75
2022/07/12 07:37:29;;;;;;;0.15;0.15;;;25.50;99.90;;;;;;5030286;28;20566;-75
2022/07/12 07:39:55;;;;;;;0.10;0.10;;;26.40;97.80;;;;;;5047937;28;20052;-75
2022/07/12 07:42:20;;;;;;;0.00;0.00;;;26.80;93.70;;;;;;5047785;28;20045;-76
2022/07/12 07:44:46;;;;;;;0.20;0.10;;;27.40;92.40;;;;;;5047628;28;20561;-76
2022/07/12 07:47:12;;;;;;;0.00;0.00;;;27.80;51.60;;;;;;5047643;28;20040;-75
2022/07/12 07:49:37;;;;;;;0.00;0.00;;;28.60;71.90;;;;;;5047504;28;20039;-76
2022/07/12 07:52:03;;;;;;;0.08;0.00;;;29.30;63.90;;;;;;5048031;28;20130;-76
2022/07/12 07:54:29;;;;;;;0.45;0.17;;;29.40;58.00;;;;;;5047522;28;20037;-75
2022/07/12 07:56:54;;;;;;;0.10;0.10;;;29.50;33.30;;;;;;5047363;28;20041;-75
2022/07/12 07:59:20;;;;;;;0.28;0.20;;;29.60;44.90;;;;;;5030035;28;20048;-76
2022/07/12 08:01:46;;;;;;;0.00;0.00;;;29.80;50.50;;;;;;5029805;28;20132;-75
2022/07/12 08:04:16;;;;;;;0.00;0.00;;;29.90;19.60;;;;;;5047947;28;20084;-75
2022/07/12 08:06:42;;;;;;;0.00;0.00;;;30.10;38.80;;;;;;5029442;28;20071;-75
2022/07/12 08:09:09;;;;;;;0.35;0.30;;;30.30;30.50;;;;;;5048396;28;20123;-75
2022/07/12 08:11:35;;;;;;;0.25;0.20;;;30.20;34.00;;;;;;5049108;28;20124;-75
2022/07/12 08:14:02;;;;;;;0.30;0.30;;;30.30;38.50;;;;;;5051837;28;20132;-75
2022/07/12 08:16:28;;;;;;;0.10;0.10;;;31.00;20.60;;;;;;5051936;28;20119;-75
2022/07/12 08:18:53;;;;;;;0.65;0.13;;;31.00;12.50;;;;;;5051954;28;20140;-75
2022/07/12 08:21:19;;;;;;;0.40;0.17;;;30.90;15.10;;;;;;5051819;28;20103;-75
2022/07/12 08:23:45;;;;;;;0.25;0.20;;;30.90;19.10;;;;;;5051940;28;20072;-76
2022/07/12 08:26:10;;;;;;;0.08;0.05;;;31.10;19.00;;;;;;5052003;28;20051;-75
2022/07/12 08:28:36;;;;;;;0.00;0.00;;;31.10;9.20;;;;;;5051659;28;20037;-75
2022/07/12 08:31:02;;;;;;;0.32;0.20;;;31.10;20.50;;;;;;5052145;28;20052;-75
2022/07/12 08:33:27;;;;;;;0.32;0.20;;;31.30;20.20;;;;;;5051272;28;20049;-75
2022/07/12 08:35:53;;;;;;;0.25;0.17;;;31.10;13.80;;;;;;5051496;28;20045;-74
2022/07/12 08:38:19;;;;;;;0.00;0.00;;;30.50;15.50;;;;;;5051463;28;20051;-75
2022/07/12 08:40:44;;;;;;;0.00;0.00;;;29.60;19.50;;;;;;5051193;28;20041;-75
2022/07/12 08:43:10;;;;;;;0.13;0.10;;;29.20;23.90;;;;;;5051240;28;20090;-75
2022/07/12 08:45:35;;;;;;;0.10;0.10;;;29.00;27.20;;;;;;5051298;28;20486;-74
2022/07/12 08:48:01;;;;;;;0.00;0.00;;;29.00;33.00;;;;;;5050981;28;20076;-75
2022/07/12 08:50:27;;;;;;;0.10;0.10;;;29.10;35.00;;;;;;5051249;28;20119;-75
2022/07/12 08:52:54;;;;;;;0.05;0.05;;;29.20;33.20;;;;;;5051129;28;20123;-74
2022/07/12 08:55:21;;;;;;;1.25;0.63;;;29.10;28.80;;;;;;5051313;28;20044;-75
2022/07/12 08:57:48;;;;;;;0.05;0.05;;;28.90;25.20;;;;;;5050710;28;20403;-75
2022/07/12 09:00:14;;;;;;;0.73;0.38;;;28.80;34.90;;;;;;5050567;28;20107;-75
2022/07/12 09:02:45;;;;;;;0.08;0.08;;;28.70;32.60;;;;;;5050456;28;20503;-75
2022/07/12 09:05:11;;;;;;;0.00;0.00;;;28.60;40.70;;;;;;5050817;28;20522;-75
2022/07/12 09:07:37;;;;;;;0.20;0.13;;;28.70;45.00;;;;;;5050700;28;20561;-75
2022/07/12 09:10:05;;;;;;;0.80;0.40;;;28.90;31.20;;;;;;5050679;28;20053;-74
2022/07/12 09:12:30;;;;;;;0.00;0.00;;;29.00;33.80;;;;;;5045216;28;20034;-74
2022/07/12 09:15:14;;;;;;;0.15;0.15;;;29.00;32.00;;;;;;5033482;28;20044;-74
2022/07/12 09:17:41;;;;;;;1.45;0.65;;;29.00;28.90;;;;;;5050497;28;20045;-75
2022/07/12 09:20:10;;;;;;;0.00;0.00;;;29.00;28.20;;;;;;5049851;28;20493;-74
2022/07/12 09:22:36;;;;;;;0.57;0.28;;;29.30;34.40;;;;;;5049758;28;20365;-75
2022/07/12 09:25:20;;;;;;;0.10;0.10;;;29.70;28.70;;;;;;5049700;28;20041;-75
2022/07/12 09:27:56;;;;;;;1.65;0.30;;;30.10;23.20;;;;;;5048566;28;20120;-75
2022/07/12 09:30:27;;;;;;;0.28;0.20;;;30.50;19.80;;;;;;5049416;28;20080;-74
2022/07/12 09:36:17;;;;;;;0.22;0.22;;;31.00;21.10;;;;;;5049405;28;20067;-74
2022/07/12 09:38:54;;;;;;;0.20;0.20;;;31.30;11.10;;;;;;5049673;28;20049;-75
2022/07/12 09:41:23;;;;;;;0.15;0.15;;;31.00;9.40;;;;;;5050105;28;20084;-75
2022/07/12 09:43:50;;;;;;;0.32;0.22;;;30.40;15.30;;;;;;5051802;28;20053;-73
2022/07/12 09:46:16;;;;;;;0.00;0.00;;;30.10;18.90;;;;;;5052404;28;20167;-74
2022/07/12 09:48:44;;;;;;;0.77;0.43;;;29.70;14.80;;;;;;5052917;28;20065;-74
2022/07/12 09:51:13;;;;;;;0.10;0.05;;;29.10;16.80;;;;;;5053376;28;20094;-73
2022/07/12 09:53:43;;;;;;;0.17;0.17;;;28.60;22.30;;;;;;5052894;28;20045;-74
2022/07/12 09:56:11;;;;;;;0.63;0.30;;;28.40;29.10;;;;;;5053173;28;20083;-74
2022/07/12 09:58:40;;;;;;;0.98;0.22;;;28.60;34.40;;;;;;5053523;28;20052;-74
2022/07/12 10:01:08;;;;;;;0.40;0.32;;;29.00;24.90;;;;;;5051871;28;20080;-73
2022/07/12 10:03:36;;;;;;;0.15;0.10;;;29.10;25.80;;;;;;5053111;28;20049;-73
2022/07/12 10:06:02;;;;;;;0.47;0.38;;;29.10;26.30;;;;;;5052898;28;20049;-73
2022/07/12 10:08:30;;;;;;;0.28;0.20;;;29.30;26.40;;;;;;5052789;28;20064;-74
2022/07/12 10:10:56;;;;;;;0.17;0.17;;;29.20;21.10;;;;;;5052887;28;20053;-73
2022/07/12 10:13:22;;;;;;;0.52;0.32;;;29.30;24.00;;;;;;5052758;28;20045;-72
2022/07/12 10:15:49;;;;;;;0.00;0.00;;;29.40;23.70;;;;;;5053039;28;20415;-73
2022/07/12 10:18:20;;;;;;;0.15;0.15;;;29.50;23.40;;;;;;5052816;28;20055;-73
2022/07/12 10:20:49;;;;;;;0.08;0.08;;;29.70;17.90;;;;;;5052657;28;20056;-73
2022/07/12 10:23:30;;;;;;;0.22;0.20;;;29.70;16.20;;;;;;5052953;28;20076;-72
2022/07/12 10:25:56;;;;;;;0.20;0.20;;;29.50;15.50;;;;;;5053167;28;20044;-74
2022/07/12 10:28:22;;;;;;;0.00;0.00;;;29.50;13.90;;;;;;5053264;28;20052;-73
2022/07/12 10:30:49;;;;;;;0.10;0.10;;;29.40;22.90;;;;;;5052784;28;20049;-73
2022/07/12 10:33:22;;;;;;;0.00;0.00;;;29.60;12.60;;;;;;5052842;28;20048;-73
2022/07/12 10:36:01;;;;;;;0.38;0.17;;;29.50;11.00;;;;;;5052965;28;20043;-73
2022/07/12 10:38:28;;;;;;;0.32;0.17;;;29.30;8.90;;;;;;5052470;28;20037;-73
2022/07/12 10:40:54;;;;;;;0.10;0.10;;;29.20;15.30;;;;;;5052976;28;20045;-73
2022/07/12 10:43:22;;;;;;;0.13;0.10;;;29.30;17.10;;;;;;5051969;28;20036;-73
2022/07/12 10:45:49;;;;;;;0.00;0.00;;;29.60;13.50;;;;;;5051748;28;20408;-73
2022/07/12 10:48:17;;;;;;;0.85;0.60;;;29.90;7.40;;;;;;5052333;28;20438;-73
2022/07/12 10:50:43;;;;;;;0.00;0.00;;;29.80;8.20;;;;;;5052531;28;20084;-73
2022/07/12 10:53:33;;;;;;;0.10;0.00;;;29.80;9.40;;;;;;5052171;28;20454;-73
2022/07/12 10:56:04;;;;;;;0.00;0.00;;;29.60;7.90;;;;;;5052512;28;20084;-73
2022/07/12 10:58:32;;;;;;;0.00;0.00;;;29.20;9.20;;;;;;5052277;28;20169;-74
2022/07/12 11:00:59;;;;;;;0.00;0.00;;;29.70;7.80;;;;;;5062858;28;20048;-75
2022/07/12 11:03:31;;;;;;;0.10;0.10;;;29.80;2.90;;;;;;5072088;28;20578;-76
2022/07/12 11:06:03;;;;;;;0.00;0.00;;;30.00;4.70;;;;;;5072243;28;20559;-75
2022/07/12 11:08:30;;;;;;;0.60;0.52;;;30.10;4.00;;;;;;5071307;28;20383;-75
2022/07/12 11:10:59;;;;;;;0.00;0.00;;;30.50;5.50;;;;;;5071198;28;20048;-75
2022/07/12 11:13:25;;;;;;;0.20;0.10;;;30.90;4.80;;;;;;5070953;28;20557;-75
2022/07/12 11:15:58;;;;;;;0.00;0.00;;;31.20;1.80;;;;;;5071119;28;20041;-75
2022/07/12 11:18:35;;;;;;;0.00;0.00;;;31.60;1.20;;;;;;5070882;28;20055;-75
2022/07/12 11:21:02;;;;;;;0.00;0.00;;;31.80;1.00;;;;;;5070947;28;20041;-75
2022/07/12 11:23:29;;;;;;;0.00;0.00;;;32.10;1.00;;;;;;5070807;28;20032;-74
2022/07/12 11:26:00;;;;;;;0.00;0.00;;;32.20;1.00;;;;;;5071015;28;20074;-75
2022/07/12 11:28:31;;;;;;;0.00;0.00;;;32.20;1.00;;;;;;5070852;28;20048;-74
2022/07/12 11:31:09;;;;;;;0.68;0.22;;;32.20;1.00;;;;;;5071152;28;20041;-75
2022/07/12 11:33:37;;;;;;;0.28;0.20;;;31.90;1.00;;;;;;5071698;28;20470;-73
2022/07/12 11:36:07;;;;;;;0.10;0.10;;;31.80;1.00;;;;;;5071904;28;20064;-73
2022/07/12 11:38:37;;;;;;;0.10;0.10;;;31.70;1.00;;;;;;5071941;28;20048;-72
2022/07/12 11:41:04;;;;;;;0.00;0.00;;;31.80;1.00;;;;;;5071873;28;20036;-74
2022/07/12 11:43:31;;;;;;;0.00;0.00;;;31.70;1.00;;;;;;5070942;28;20041;-73
2022/07/12 11:45:57;;;;;;;0.00;0.00;;;31.70;1.00;;;;;;5070976;28;20049;-73
2022/07/12 11:48:23;;;;;;;0.00;0.00;;;31.70;1.00;;;;;;5056685;28;20086;-74
2022/07/12 11:50:54;;;;;;;0.43;0.32;;;31.60;1.00;;;;;;5075101;28;20123;-73
2022/07/12 11:53:26;;;;;;;0.10;0.10;;;31.90;1.00;;;;;;5074912;28;20105;-73
2022/07/12 11:55:55;;;;;;;0.17;0.10;;;32.10;1.00;;;;;;5075170;28;20040;-72
2022/07/12 11:58:22;;;;;;;21.92;0.47;;;32.50;1.00;;;;;;5074710;28;20048;-74
2022/07/12 12:00:49;;;;;;;0.00;0.00;;;32.80;1.00;;;;;;5075016;28;20044;-73
2022/07/12 12:03:16;;;;;;;0.10;0.10;;;33.00;1.00;;;;;;5074397;28;20040;-73
2022/07/12 12:05:43;;;;;;;2.10;0.35;;;33.40;1.00;;;;;;5074568;28;20129;-74
2022/07/12 12:08:12;;;;;;;0.00;0.00;;;33.50;1.00;;;;;;5074518;28;20495;-73
2022/07/12 12:10:39;;;;;;;8.68;0.73;;;33.60;1.00;;;;;;5074585;28;20573;-73
2022/07/12 12:13:11;;;;;;;0.00;0.00;;;33.70;1.00;;;;;;5074723;28;20045;-73
2022/07/12 12:15:37;;;;;;;0.00;0.00;;;34.10;1.00;;;;;;5074482;28;20059;-73
2022/07/12 12:18:07;;;;;;;0.20;0.13;;;34.50;1.00;;;;;;5074280;28;20131;-73
2022/07/12 12:20:35;;;;;;;0.00;0.00;;;34.70;1.00;;;;;;5074086;28;20072;-74
2022/07/12 12:23:02;;;;;;;0.00;0.00;;;34.70;1.00;;;;;;5056852;28;20116;-75
2022/07/12 12:25:30;;;;;;;0.10;0.10;;;34.70;1.00;;;;;;5074634;28;20036;-75
2022/07/12 12:28:01;;;;;;;0.10;0.00;;;35.20;1.00;;;;;;5073876;28;20071;-76
2022/07/12 12:30:28;;;;;;;0.00;0.00;;;35.20;1.00;;;;;;5073972;28;20123;-75
2022/07/12 12:32:58;;;;;;;0.40;0.13;;;34.80;1.00;;;;;;5073786;28;20049;-75
2022/07/12 12:35:37;;;;;;;0.00;0.00;;;34.60;1.00;;;;;;5073812;28;20567;-75
2022/07/12 12:38:14;;;;;;;0.00;0.00;;;34.00;1.00;;;;;;5073831;28;20045;-75
2022/07/12 12:40:40;;;;;;;0.00;0.00;;;33.90;1.00;;;;;;5073738;28;20044;-75
2022/07/12 12:43:07;;;;;;;0.00;0.00;;;34.00;1.00;;;;;;5073658;28;20487;-75
2022/07/12 12:45:34;;;;;;;0.10;0.10;;;33.90;1.00;;;;;;5073661;28;20409;-75
2022/07/12 12:48:02;;;;;;;0.00;0.00;;;34.50;1.00;;;;;;5055778;28;20487;-75
2022/07/12 12:50:41;;;;;;;0.05;0.05;;;34.90;1.00;;;;;;5073730;28;20052;-75
2022/07/12 12:53:26;;;;;;;0.22;0.22;;;35.60;1.00;;;;;;5073509;28;20052;-75
2022/07/12 12:55:54;;;;;;;0.63;0.15;;;36.20;1.00;;;;;;5073266;28;20121;-75
2022/07/12 12:58:21;;;;;;;0.00;0.00;;;36.30;1.00;;;;;;5073330;28;20483;-75